This is the latest recevied weather packets stored in our database for station/object IW1RID-3. If no packets are shown the sender has not sent any weather packets the latest 1 day(s).
| Time | Temp. | Humidity | Pressure | Rain* | Wind** | Luminosity | Snow |
|---|---|---|---|---|---|---|---|
| 1778084709 | 22.78° C | 51% | 1066.3 hPa | - | - | - | - |
| 1778079886 | 23.33° C | 49% | 1066.8 hPa | - | - | - | - |
| 1778077475 | 21.67° C | 56% | 1067.4 hPa | - | - | - | - |
| 1778075064 | 21.11° C | 60% | 1067.6 hPa | - | - | - | - |
| 1778069031 | 18.89° C | 66% | 1067.4 hPa | - | - | - | - |
| 1778064206 | 18.33° C | 66% | 1067.5 hPa | - | - | - | - |
| 1778063000 | 18.33° C | 70% | 1067.5 hPa | - | - | - | - |
| 1778059384 | 18.33° C | 68% | 1067.2 hPa | - | - | - | - |
| 1778058178 | 18.33° C | 71% | 1067 hPa | - | - | - | - |
| 1778055767 | 16.67° C | 79% | 1066.6 hPa | - | - | - | - |
| 1778052151 | 15° C | 83% | 1066.5 hPa | - | - | - | - |
| 1778050947 | 14.44° C | 89% | 1066.5 hPa | - | - | - | - |
| 1778046124 | 12.22° C | 96% | 1066.2 hPa | - | - | - | - |
| 1778044918 | 12.22° C | 95% | 1065.9 hPa | - | - | - | - |
| 1778042507 | 12.22° C | 92% | 1065.7 hPa | - | - | - | - |
| 1778041302 | 12.78° C | 93% | 1065.7 hPa | - | - | - | - |
| 1778040096 | 12.22° C | 94% | 1066.1 hPa | - | - | - | - |
| 1778038891 | 12.78° C | 90% | 1066.4 hPa | - | - | - | - |
| 1778037686 | 12.78° C | 93% | 1067 hPa | - | - | - | - |
| 1778036480 | 13.33° C | 85% | 1066.7 hPa | - | - | - | - |
| 1778035275 | 12.78° C | 89% | 1065.9 hPa | - | - | - | - |
| 1778034070 | 12.78° C | 89% | 1066.1 hPa | - | - | - | - |
| 1778031660 | 13.33° C | 89% | 1066.7 hPa | - | - | - | - |
| 1778030456 | 13.33° C | 85% | 1066.6 hPa | - | - | - | - |
| 1778029249 | 13.33° C | 88% | 1066.7 hPa | - | - | - | - |
* Rain since midnight (hover to see other rain measurements)
** Current wind speed in m/s (hover to see current wind gust speed)